Fort Smith, AR

8:40 AM CDT on August 30, 2015 (GMT -0500)
Sebastian County EOC | | Change Station
CLOSE
Current Station
Personal Weather Station
Location: Fort Smith, AR
Elevation: 442 ft
Nearby Weather Stations

Elev 442 ft 35.32 °N, 94.34 °W | Updated 6 seconds ago

Haze
Haze
76.5 °F
Feels Like 77 °F
N
4.2
Wind Variable Wind from East
Gusts 6.8 mph

Today
High -- | Low -- °F
--% Chance of Precip.
Yesterday
High -- | Low -- °F
Precip. -- in
6:48 AM 7:47 PM
Full, 99% visible
Pressure 29.98 in
Visibility 6.0 miles
Clouds Clear
Heat Index 77 °F
Dew Point 72 °F
Humidity 85%
Rainfall 0.00 in
Snow Depth Not available.
UV 1 out of 12
Pollen 9.50 out of 12
Air Quality Not available.
Flu Activity Not available.
METAR KFSM 301253Z 07008KT 6SM HZ CLR 23/20 A2999 RMK AO2 SLP151 T02280200
Pressure 29.98 in
Visibility 6.0 miles
Clouds Clear
Heat Index 77 °F
Dew Point 72 °F
Humidity 85%
Rainfall 0.00 in
Snow Depth Not available.
UV 1 out of 12
Pollen 9.50 out of 12
Air Quality Not available.
Flu Activity Not available.
METAR KFSM 301253Z 07008KT 6SM HZ CLR 23/20 A2999 RMK AO2 SLP151 T02280200
Nowcast | as of 7:22 am CDT on August 30, 2015

at 7:18 am...National Weather Service Doppler radar indicated an isolated shower or two diminishing across parts of northwest Arkansas and east central Oklahoma. Through 9 am...isolated showers are expected to continue diminishing. Little additional rainfall is anticipated. This will be the final short term forecast concerning this mornings precipitation.

×

10-Day Weather Forecast

×

Almanac

Astronomy

Aug. 30, 2015 Rise Set
Actual Time
Civil Twilight
Nautical Twilight
Astronomical Twilight
Moon
Length of Visible Light
Length of Day
Tomorrow will be .
, % of the Moon is Illuminated

Today's Extremes

State Highs State Lows

Community

WunderPhotos

Upload Photos

1,850,953 photos uploaded!

WunderBlogs® & News

Nearby

Air Quality

  Air Quality AQ Index Pollutant
Not available.

Snow Depth

Station Depth Elevation

Earthquake Activity

City Distance Mag. Time & Date
Minimum magnitude displayed is 2.5.

Coastal Water Temperatures

Place Temperature

Stations

Nearby Weather Stations

Station Location Temp. Windchill Dew Point Humidity Wind Precip. Elev Updated Type